Dame De Poisson — FGG2707 — position and weather

sailwx.info

Track history (hours):
 
Tides and Currents Weather Stations Pressure Air Temp Water Temp Dewpoint Dewpoint Depression Visibility Wind Speed Wind Dir Waves Ship Positions

Dame De Poisson

Last reported at 2018-Jan-05 09:22 UTC. Time now 2018-Feb-20 02:09 UTC.
Position N 47°35' W 003°02'.
Warning: this ship's position is 45 days out of date.

Length 10 m.

Type: Fishing. MMSI: 227784760.

Date/timePositionNaut miles runAvg speedWind from/ knotsBaromVisibWave heightAir tempDewpointWater temp
2018-Jan-05 09:22N 47°35' W 003°02'1 1.6
2018-Jan-05 08:59N 47°35' W 003°01'3 5.2
2018-Jan-05 08:30N 47°33' W 003°03'2 4.2
2018-Jan-05 08:00N 47°32' W 003°06'0 0.7
2018-Jan-05 07:30N 47°32' W 003°06'0 0.4
2018-Jan-05 06:58N 47°32' W 003°06'0 0.6
2018-Jan-05 06:30N 47°32' W 003°05'0 0.2
2018-Jan-05 05:59N 47°32' W 003°05'0 0.2
2018-Jan-05 05:30N 47°32' W 003°05'4 7.6
2018-Jan-05 05:00N 47°35' W 003°01'1 0.1
2018-Jan-04 17:21N 47°36' W 003°01'2 6.4
2018-Jan-04 17:00N 47°33' W 003°02'3 5.0
2018-Jan-04 16:27N 47°32' W 003°06'2 4.5
2018-Jan-04 16:01N 47°30' W 003°06'1 0.2
2018-Jan-04 10:45N 47°29' W 003°06'0 0.0
2018-Jan-04 10:26N 47°29' W 003°06'0 0.1
2018-Jan-04 09:09N 47°29' W 003°06'1 3.7
2018-Jan-04 09:00N 47°30' W 003°06'2 4.0
2018-Jan-04 08:30N 47°32' W 003°07'1 1.3
2018-Jan-04 08:00N 47°32' W 003°06'0 0.2
2018-Jan-04 07:30N 47°32' W 003°06'1 1.8
2018-Jan-04 07:00N 47°31' W 003°06'0 0.7
2018-Jan-04 06:26N 47°31' W 003°07'0 0.3
2018-Jan-04 06:00N 47°31' W 003°07'0 0.5
2018-Jan-04 05:30N 47°31' W 003°07'1 2.8
2018-Jan-04 05:00N 47°29' W 003°06'0 0.0
2018-Jan-03 17:07N 47°29' W 003°06'0 0.0
2018-Jan-03 17:00N 47°29' W 003°06'2 3.7
2018-Jan-03 16:30N 47°31' W 003°07'1 2.2
2018-Jan-03 15:57N 47°32' W 003°06'3 5.8
2018-Jan-03 15:29N 47°29' W 003°06'0 0.0
2018-Jan-03 09:40N 47°29' W 003°06'0 2.5
2018-Jan-03 09:30N 47°29' W 003°05'0 0.7
2018-Jan-03 08:58N 47°30' W 003°06'2 3.6
2018-Jan-03 08:30N 47°31' W 003°06'1 1.8
2018-Jan-03 08:00N 47°32' W 003°06'0 0.8
2018-Jan-03 07:30N 47°32' W 003°07'0 0.3
2018-Jan-03 07:00N 47°32' W 003°06'1 2.5
2018-Jan-03 06:30N 47°31' W 003°07'0 0.9
2018-Jan-03 06:00N 47°30' W 003°07'1 0.1
2018-Jan-02 16:46N 47°29' W 003°06'1 4.1
2018-Jan-02 16:30N 47°30' W 003°07'2 3.4
2018-Jan-02 16:00N 47°32' W 003°06'1 2.4
2018-Jan-02 15:30N 47°33' W 003°05'3 6.1
2018-Jan-02 14:57N 47°35' W 003°01'5 0.1
2017-Dec-31 21:00N 47°32' W 003°06'0 0.4
2017-Dec-31 20:30N 47°32' W 003°06'1 2.2
2017-Dec-31 20:00N 47°33' W 003°05'3 6.6
2017-Dec-31 19:30N 47°35' W 003°01'1 0.2
2017-Dec-31 15:20N 47°36' W 003°01'0 0.0
2017-Dec-31 15:00N 47°36' W 003°01'3 6.3
2017-Dec-31 14:30N 47°33' W 003°03'2 4.1
2017-Dec-31 14:00N 47°32' W 003°06'1 2.1
2017-Dec-31 13:29N 47°31' W 003°07'0 0.0
2017-Dec-31 12:59N 47°31' W 003°07'0 0.0
2017-Dec-31 12:29N 47°31' W 003°07'0 0.0
2017-Dec-31 11:59N 47°31' W 003°07'0 0.2
2017-Dec-31 11:30N 47°31' W 003°08'1 1.7
2017-Dec-31 11:00N 47°32' W 003°07'1 1.1
2017-Dec-31 10:30N 47°32' W 003°06'0 0.3
2017-Dec-31 10:00N 47°32' W 003°06'0 0.2
2017-Dec-31 09:30N 47°32' W 003°06'0 0.2
2017-Dec-31 09:00N 47°32' W 003°06'0 0.4
2017-Dec-31 08:30N 47°32' W 003°05'0 0.3
2017-Dec-31 08:00N 47°32' W 003°05'0 0.3
2017-Dec-31 07:30N 47°32' W 003°05'0 0.2
2017-Dec-31 07:00N 47°32' W 003°05'0 0.1
2017-Dec-31 06:30N 47°32' W 003°05'0 0.4
2017-Dec-31 06:00N 47°32' W 003°05'3 6.7
2017-Dec-31 05:30N 47°34' W 003°01'1 0.1
2017-Dec-30 17:47N 47°36' W 003°01'2 7.1
2017-Dec-30 17:30N 47°34' W 003°01'3 6.3
2017-Dec-30 17:00N 47°32' W 003°05'1 1.2
2017-Dec-30 16:30N 47°32' W 003°06'2 4.6
2017-Dec-30 16:00N 47°33' W 003°03'3 0.6
2017-Dec-30 11:12N 47°36' W 003°01'0 0.5
2017-Dec-30 10:59N 47°35' W 003°01'0 0.0
2017-Dec-30 10:29N 47°35' W 003°01'0 0.0
2017-Dec-30 09:59N 47°35' W 003°01'0 0.0
2017-Dec-30 09:29N 47°35' W 003°01'0 0.0
2017-Dec-30 08:59N 47°35' W 003°01'2 3.9
2017-Dec-30 08:30N 47°34' W 003°00'1 2.4
2017-Dec-30 08:00N 47°34' W 003°02'2 3.3
2017-Dec-30 07:30N 47°33' W 003°04'1 2.5
2017-Dec-30 07:00N 47°32' W 003°06'0 0.2
2017-Dec-30 06:30N 47°32' W 003°06'0 0.3
2017-Dec-30 06:01N 47°32' W 003°06'1 1.8
2017-Dec-30 05:31N 47°33' W 003°04'3 6.4
2017-Dec-30 05:01N 47°35' W 003°01'1 0.1
2017-Dec-29 17:03N 47°36' W 003°01'0 6.0
2017-Dec-29 17:00N 47°35' W 003°01'2 3.4
2017-Dec-29 16:30N 47°34' W 003°03'3 5.0
2017-Dec-29 16:00N 47°32' W 003°06'1 2.0
2017-Dec-29 15:30N 47°33' W 003°04'3 6.3
2017-Dec-29 15:00N 47°35' W 003°01'  
Track history (hours):
 
Tides and Currents Weather Stations Pressure Air Temp Water Temp Dewpoint Dewpoint Depression Visibility Wind Speed Wind Dir Waves Ship Positions

Dame De Poisson

Last reported at 2018-Jan-05 09:22 UTC. Time now 2018-Feb-20 02:09 UTC.
Position N 47°35' W 003°02'.
Warning: this ship's position is 45 days out of date.

Length 10 m.

Type: Fishing. MMSI: 227784760.

Date/timePositionNaut miles runAvg speedWind from/ knotsBaromVisibWave heightAir tempDewpointWater temp
2018-Jan-05 09:22N 47°35' W 003°02'1 1.6
2018-Jan-05 08:59N 47°35' W 003°01'3 5.2
2018-Jan-05 08:30N 47°33' W 003°03'2 4.2
2018-Jan-05 08:00N 47°32' W 003°06'0 0.7
2018-Jan-05 07:30N 47°32' W 003°06'0 0.4
2018-Jan-05 06:58N 47°32' W 003°06'0 0.6
2018-Jan-05 06:30N 47°32' W 003°05'0 0.2
2018-Jan-05 05:59N 47°32' W 003°05'0 0.2
2018-Jan-05 05:30N 47°32' W 003°05'4 7.6
2018-Jan-05 05:00N 47°35' W 003°01'1 0.1
2018-Jan-04 17:21N 47°36' W 003°01'2 6.4
2018-Jan-04 17:00N 47°33' W 003°02'3 5.0
2018-Jan-04 16:27N 47°32' W 003°06'2 4.5
2018-Jan-04 16:01N 47°30' W 003°06'1 0.2
2018-Jan-04 10:45N 47°29' W 003°06'0 0.0
2018-Jan-04 10:26N 47°29' W 003°06'0 0.1
2018-Jan-04 09:09N 47°29' W 003°06'1 3.7
2018-Jan-04 09:00N 47°30' W 003°06'2 4.0
2018-Jan-04 08:30N 47°32' W 003°07'1 1.3
2018-Jan-04 08:00N 47°32' W 003°06'0 0.2
2018-Jan-04 07:30N 47°32' W 003°06'1 1.8
2018-Jan-04 07:00N 47°31' W 003°06'0 0.7
2018-Jan-04 06:26N 47°31' W 003°07'0 0.3
2018-Jan-04 06:00N 47°31' W 003°07'0 0.5
2018-Jan-04 05:30N 47°31' W 003°07'1 2.8
2018-Jan-04 05:00N 47°29' W 003°06'0 0.0
2018-Jan-03 17:07N 47°29' W 003°06'0 0.0
2018-Jan-03 17:00N 47°29' W 003°06'2 3.7
2018-Jan-03 16:30N 47°31' W 003°07'1 2.2
2018-Jan-03 15:57N 47°32' W 003°06'3 5.8
2018-Jan-03 15:29N 47°29' W 003°06'0 0.0
2018-Jan-03 09:40N 47°29' W 003°06'0 2.5
2018-Jan-03 09:30N 47°29' W 003°05'0 0.7
2018-Jan-03 08:58N 47°30' W 003°06'2 3.6
2018-Jan-03 08:30N 47°31' W 003°06'1 1.8
2018-Jan-03 08:00N 47°32' W 003°06'0 0.8
2018-Jan-03 07:30N 47°32' W 003°07'0 0.3
2018-Jan-03 07:00N 47°32' W 003°06'1 2.5
2018-Jan-03 06:30N 47°31' W 003°07'0 0.9
2018-Jan-03 06:00N 47°30' W 003°07'1 0.1
2018-Jan-02 16:46N 47°29' W 003°06'1 4.1
2018-Jan-02 16:30N 47°30' W 003°07'2 3.4
2018-Jan-02 16:00N 47°32' W 003°06'1 2.4
2018-Jan-02 15:30N 47°33' W 003°05'3 6.1
2018-Jan-02 14:57N 47°35' W 003°01'5 0.1
2017-Dec-31 21:00N 47°32' W 003°06'0 0.4
2017-Dec-31 20:30N 47°32' W 003°06'1 2.2
2017-Dec-31 20:00N 47°33' W 003°05'3 6.6
2017-Dec-31 19:30N 47°35' W 003°01'1 0.2
2017-Dec-31 15:20N 47°36' W 003°01'0 0.0
2017-Dec-31 15:00N 47°36' W 003°01'3 6.3
2017-Dec-31 14:30N 47°33' W 003°03'2 4.1
2017-Dec-31 14:00N 47°32' W 003°06'1 2.1
2017-Dec-31 13:29N 47°31' W 003°07'0 0.0
2017-Dec-31 12:59N 47°31' W 003°07'0 0.0
2017-Dec-31 12:29N 47°31' W 003°07'0 0.0
2017-Dec-31 11:59N 47°31' W 003°07'0 0.2
2017-Dec-31 11:30N 47°31' W 003°08'1 1.7
2017-Dec-31 11:00N 47°32' W 003°07'1 1.1
2017-Dec-31 10:30N 47°32' W 003°06'0 0.3
2017-Dec-31 10:00N 47°32' W 003°06'0 0.2
2017-Dec-31 09:30N 47°32' W 003°06'0 0.2
2017-Dec-31 09:00N 47°32' W 003°06'0 0.4
2017-Dec-31 08:30N 47°32' W 003°05'0 0.3
2017-Dec-31 08:00N 47°32' W 003°05'0 0.3
2017-Dec-31 07:30N 47°32' W 003°05'0 0.2
2017-Dec-31 07:00N 47°32' W 003°05'0 0.1
2017-Dec-31 06:30N 47°32' W 003°05'0 0.4
2017-Dec-31 06:00N 47°32' W 003°05'3 6.7
2017-Dec-31 05:30N 47°34' W 003°01'1 0.1
2017-Dec-30 17:47N 47°36' W 003°01'2 7.1
2017-Dec-30 17:30N 47°34' W 003°01'3 6.3
2017-Dec-30 17:00N 47°32' W 003°05'1 1.2
2017-Dec-30 16:30N 47°32' W 003°06'2 4.6
2017-Dec-30 16:00N 47°33' W 003°03'3 0.6
2017-Dec-30 11:12N 47°36' W 003°01'0 0.5
2017-Dec-30 10:59N 47°35' W 003°01'0 0.0
2017-Dec-30 10:29N 47°35' W 003°01'0 0.0
2017-Dec-30 09:59N 47°35' W 003°01'0 0.0
2017-Dec-30 09:29N 47°35' W 003°01'0 0.0
2017-Dec-30 08:59N 47°35' W 003°01'2 3.9
2017-Dec-30 08:30N 47°34' W 003°00'1 2.4
2017-Dec-30 08:00N 47°34' W 003°02'2 3.3
2017-Dec-30 07:30N 47°33' W 003°04'1 2.5
2017-Dec-30 07:00N 47°32' W 003°06'0 0.2
2017-Dec-30 06:30N 47°32' W 003°06'0 0.3
2017-Dec-30 06:01N 47°32' W 003°06'1 1.8
2017-Dec-30 05:31N 47°33' W 003°04'3 6.4
2017-Dec-30 05:01N 47°35' W 003°01'1 0.1
2017-Dec-29 17:03N 47°36' W 003°01'0 6.0
2017-Dec-29 17:00N 47°35' W 003°01'2 3.4
2017-Dec-29 16:30N 47°34' W 003°03'3 5.0
2017-Dec-29 16:00N 47°32' W 003°06'1 2.0
2017-Dec-29 15:30N 47°33' W 003°04'3 6.3
2017-Dec-29 15:00N 47°35' W 003°01'  

Dump ship's entire track history